sensor_id;sensor_type;location;lat;lon;timestamp;P1;durP1;ratioP1;P2;durP2;ratioP2
68256;SDS011;55069;51.568;4.656;2022-07-06T00:01:55;3.72;;;1.10;;
68256;SDS011;55069;51.568;4.656;2022-07-06T00:04:21;3.50;;;1.13;;
68256;SDS011;55069;51.568;4.656;2022-07-06T00:06:46;6.17;;;1.33;;
68256;SDS011;55069;51.568;4.656;2022-07-06T00:09:12;4.05;;;1.67;;
68256;SDS011;55069;51.568;4.656;2022-07-06T00:11:37;5.67;;;1.23;;
68256;SDS011;55069;51.568;4.656;2022-07-06T00:14:03;2.97;;;1.30;;
68256;SDS011;55069;51.568;4.656;2022-07-06T00:16:29;4.30;;;1.30;;
68256;SDS011;55069;51.568;4.656;2022-07-06T00:18:54;4.50;;;1.65;;
68256;SDS011;55069;51.568;4.656;2022-07-06T00:21:20;4.30;;;1.23;;
68256;SDS011;55069;51.568;4.656;2022-07-06T00:23:45;3.93;;;1.60;;
68256;SDS011;55069;51.568;4.656;2022-07-06T00:26:11;4.43;;;1.17;;
68256;SDS011;55069;51.568;4.656;2022-07-06T00:28:37;4.65;;;1.00;;
68256;SDS011;55069;51.568;4.656;2022-07-06T00:31:02;3.13;;;1.20;;
68256;SDS011;55069;51.568;4.656;2022-07-06T00:33:28;4.25;;;1.60;;
68256;SDS011;55069;51.568;4.656;2022-07-06T00:35:53;4.55;;;1.60;;
68256;SDS011;55069;51.568;4.656;2022-07-06T00:38:19;3.53;;;1.33;;
68256;SDS011;55069;51.568;4.656;2022-07-06T00:40:46;2.33;;;1.48;;
68256;SDS011;55069;51.568;4.656;2022-07-06T00:43:11;3.58;;;1.38;;
68256;SDS011;55069;51.568;4.656;2022-07-06T00:45:37;5.03;;;1.90;;
68256;SDS011;55069;51.568;4.656;2022-07-06T00:48:02;3.17;;;1.33;;
68256;SDS011;55069;51.568;4.656;2022-07-06T00:50:28;3.83;;;1.50;;
68256;SDS011;55069;51.568;4.656;2022-07-06T00:52:54;3.53;;;1.85;;
68256;SDS011;55069;51.568;4.656;2022-07-06T00:55:22;3.05;;;1.50;;
68256;SDS011;55069;51.568;4.656;2022-07-06T00:57:50;1.73;;;1.37;;
68256;SDS011;55069;51.568;4.656;2022-07-06T01:00:18;3.08;;;1.30;;
68256;SDS011;55069;51.568;4.656;2022-07-06T01:02:45;3.60;;;1.48;;
68256;SDS011;55069;51.568;4.656;2022-07-06T01:05:12;3.95;;;1.20;;
68256;SDS011;55069;51.568;4.656;2022-07-06T01:07:39;4.72;;;2.20;;
68256;SDS011;55069;51.568;4.656;2022-07-06T01:10:08;2.63;;;1.33;;
68256;SDS011;55069;51.568;4.656;2022-07-06T01:12:36;2.65;;;1.33;;
68256;SDS011;55069;51.568;4.656;2022-07-06T01:15:03;4.13;;;1.30;;
68256;SDS011;55069;51.568;4.656;2022-07-06T01:17:31;3.92;;;1.35;;
68256;SDS011;55069;51.568;4.656;2022-07-06T01:19:58;6.88;;;1.75;;
68256;SDS011;55069;51.568;4.656;2022-07-06T01:22:23;4.67;;;1.40;;
68256;SDS011;55069;51.568;4.656;2022-07-06T01:24:49;3.83;;;1.60;;
68256;SDS011;55069;51.568;4.656;2022-07-06T01:27:14;4.50;;;1.30;;
68256;SDS011;55069;51.568;4.656;2022-07-06T01:29:40;4.30;;;1.50;;
68256;SDS011;55069;51.568;4.656;2022-07-06T01:32:06;3.70;;;1.50;;
68256;SDS011;55069;51.568;4.656;2022-07-06T01:34:31;4.30;;;1.80;;
68256;SDS011;55069;51.568;4.656;2022-07-06T01:36:57;3.87;;;1.73;;
68256;SDS011;55069;51.568;4.656;2022-07-06T01:39:22;3.83;;;1.37;;
68256;SDS011;55069;51.568;4.656;2022-07-06T01:41:48;4.53;;;1.23;;
68256;SDS011;55069;51.568;4.656;2022-07-06T01:44:14;2.97;;;1.47;;
68256;SDS011;55069;51.568;4.656;2022-07-06T01:46:39;4.80;;;1.50;;
68256;SDS011;55069;51.568;4.656;2022-07-06T01:49:07;4.32;;;1.95;;
68256;SDS011;55069;51.568;4.656;2022-07-06T01:51:33;4.53;;;1.70;;
68256;SDS011;55069;51.568;4.656;2022-07-06T01:53:59;2.20;;;1.37;;
68256;SDS011;55069;51.568;4.656;2022-07-06T01:56:25;3.83;;;1.50;;
68256;SDS011;55069;51.568;4.656;2022-07-06T01:58:56;4.78;;;1.50;;
68256;SDS011;55069;51.568;4.656;2022-07-06T02:01:22;7.13;;;1.70;;
68256;SDS011;55069;51.568;4.656;2022-07-06T02:03:48;5.40;;;1.93;;
68256;SDS011;55069;51.568;4.656;2022-07-06T02:06:13;4.28;;;1.58;;
68256;SDS011;55069;51.568;4.656;2022-07-06T02:08:40;4.57;;;1.17;;
68256;SDS011;55069;51.568;4.656;2022-07-06T02:11:07;5.40;;;2.08;;
68256;SDS011;55069;51.568;4.656;2022-07-06T02:13:35;4.05;;;1.90;;
68256;SDS011;55069;51.568;4.656;2022-07-06T02:16:02;2.65;;;1.60;;
68256;SDS011;55069;51.568;4.656;2022-07-06T02:18:28;3.40;;;1.50;;
68256;SDS011;55069;51.568;4.656;2022-07-06T02:20:55;5.13;;;2.07;;
68256;SDS011;55069;51.568;4.656;2022-07-06T02:23:21;3.50;;;1.60;;
68256;SDS011;55069;51.568;4.656;2022-07-06T02:25:48;5.80;;;1.80;;
68256;SDS011;55069;51.568;4.656;2022-07-06T02:28:13;5.57;;;1.80;;
68256;SDS011;55069;51.568;4.656;2022-07-06T02:30:39;4.13;;;2.00;;
68256;SDS011;55069;51.568;4.656;2022-07-06T02:33:05;4.07;;;2.17;;
68256;SDS011;55069;51.568;4.656;2022-07-06T02:35:31;3.97;;;1.67;;
68256;SDS011;55069;51.568;4.656;2022-07-06T02:37:57;2.83;;;1.55;;
68256;SDS011;55069;51.568;4.656;2022-07-06T02:40:22;3.87;;;1.50;;
68256;SDS011;55069;51.568;4.656;2022-07-06T02:42:48;6.43;;;2.10;;
68256;SDS011;55069;51.568;4.656;2022-07-06T02:45:13;3.38;;;1.70;;
68256;SDS011;55069;51.568;4.656;2022-07-06T02:47:40;3.17;;;2.00;;
68256;SDS011;55069;51.568;4.656;2022-07-06T02:50:06;4.43;;;2.03;;
68256;SDS011;55069;51.568;4.656;2022-07-06T02:52:33;4.22;;;2.22;;
68256;SDS011;55069;51.568;4.656;2022-07-06T02:55:00;3.78;;;1.67;;
68256;SDS011;55069;51.568;4.656;2022-07-06T02:57:26;4.47;;;2.07;;
68256;SDS011;55069;51.568;4.656;2022-07-06T02:59:51;5.47;;;1.70;;
68256;SDS011;55069;51.568;4.656;2022-07-06T03:02:18;3.72;;;1.92;;
68256;SDS011;55069;51.568;4.656;2022-07-06T03:04:44;4.80;;;2.23;;
68256;SDS011;55069;51.568;4.656;2022-07-06T03:07:09;5.18;;;2.05;;
68256;SDS011;55069;51.568;4.656;2022-07-06T03:09:35;5.13;;;2.20;;
68256;SDS011;55069;51.568;4.656;2022-07-06T03:12:01;3.38;;;2.03;;
68256;SDS011;55069;51.568;4.656;2022-07-06T03:14:29;3.30;;;2.03;;
68256;SDS011;55069;51.568;4.656;2022-07-06T03:16:55;4.93;;;2.20;;
68256;SDS011;55069;51.568;4.656;2022-07-06T03:19:21;4.10;;;2.10;;
68256;SDS011;55069;51.568;4.656;2022-07-06T03:21:47;4.37;;;2.30;;
68256;SDS011;55069;51.568;4.656;2022-07-06T03:24:13;3.40;;;2.22;;
68256;SDS011;55069;51.568;4.656;2022-07-06T03:26:39;5.13;;;1.90;;
68256;SDS011;55069;51.568;4.656;2022-07-06T03:29:04;4.37;;;1.97;;
68256;SDS011;55069;51.568;4.656;2022-07-06T03:31:30;3.43;;;2.07;;
68256;SDS011;55069;51.568;4.656;2022-07-06T03:33:55;3.95;;;2.40;;
68256;SDS011;55069;51.568;4.656;2022-07-06T03:36:22;3.67;;;2.45;;
68256;SDS011;55069;51.568;4.656;2022-07-06T03:38:48;4.37;;;2.10;;
68256;SDS011;55069;51.568;4.656;2022-07-06T03:41:13;4.50;;;2.28;;
68256;SDS011;55069;51.568;4.656;2022-07-06T03:43:39;4.37;;;2.30;;
68256;SDS011;55069;51.568;4.656;2022-07-06T03:46:05;4.75;;;2.58;;
68256;SDS011;55069;51.568;4.656;2022-07-06T03:48:31;4.80;;;2.60;;
68256;SDS011;55069;51.568;4.656;2022-07-06T03:50:57;4.90;;;2.20;;
68256;SDS011;55069;51.568;4.656;2022-07-06T03:53:22;5.00;;;2.30;;
68256;SDS011;55069;51.568;4.656;2022-07-06T03:55:48;6.85;;;2.20;;
68256;SDS011;55069;51.568;4.656;2022-07-06T03:58:35;4.30;;;2.07;;
68256;SDS011;55069;51.568;4.656;2022-07-06T04:01:00;5.00;;;2.28;;
68256;SDS011;55069;51.568;4.656;2022-07-06T04:03:26;5.37;;;2.40;;
68256;SDS011;55069;51.568;4.656;2022-07-06T04:05:52;3.25;;;2.50;;
68256;SDS011;55069;51.568;4.656;2022-07-06T04:08:18;5.03;;;2.30;;
68256;SDS011;55069;51.568;4.656;2022-07-06T04:10:50;3.47;;;2.33;;
68256;SDS011;55069;51.568;4.656;2022-07-06T04:13:16;6.10;;;2.58;;
68256;SDS011;55069;51.568;4.656;2022-07-06T04:15:41;5.20;;;3.00;;
68256;SDS011;55069;51.568;4.656;2022-07-06T04:18:07;4.60;;;2.77;;
68256;SDS011;55069;51.568;4.656;2022-07-06T04:20:39;5.53;;;2.60;;
68256;SDS011;55069;51.568;4.656;2022-07-06T04:23:05;6.43;;;2.75;;
68256;SDS011;55069;51.568;4.656;2022-07-06T04:25:31;5.32;;;2.50;;
68256;SDS011;55069;51.568;4.656;2022-07-06T04:27:59;4.13;;;2.77;;
68256;SDS011;55069;51.568;4.656;2022-07-06T04:30:26;3.63;;;2.38;;
68256;SDS011;55069;51.568;4.656;2022-07-06T04:32:52;5.47;;;2.88;;
68256;SDS011;55069;51.568;4.656;2022-07-06T04:35:18;6.70;;;3.25;;
68256;SDS011;55069;51.568;4.656;2022-07-06T04:37:46;6.87;;;2.77;;
68256;SDS011;55069;51.568;4.656;2022-07-06T04:40:13;5.05;;;2.67;;
68256;SDS011;55069;51.568;4.656;2022-07-06T04:42:40;4.43;;;2.63;;
68256;SDS011;55069;51.568;4.656;2022-07-06T04:45:06;5.53;;;2.47;;
68256;SDS011;55069;51.568;4.656;2022-07-06T04:47:32;4.93;;;2.90;;
68256;SDS011;55069;51.568;4.656;2022-07-06T04:49:57;3.60;;;2.22;;
68256;SDS011;55069;51.568;4.656;2022-07-06T04:52:23;3.70;;;2.60;;
68256;SDS011;55069;51.568;4.656;2022-07-06T04:54:49;4.30;;;2.58;;
68256;SDS011;55069;51.568;4.656;2022-07-06T04:57:14;4.27;;;2.80;;
68256;SDS011;55069;51.568;4.656;2022-07-06T04:59:41;5.13;;;2.38;;
68256;SDS011;55069;51.568;4.656;2022-07-06T05:02:07;4.35;;;2.22;;
68256;SDS011;55069;51.568;4.656;2022-07-06T05:04:33;4.20;;;2.20;;
68256;SDS011;55069;51.568;4.656;2022-07-06T05:06:58;5.78;;;2.45;;
68256;SDS011;55069;51.568;4.656;2022-07-06T05:09:24;3.47;;;2.13;;
68256;SDS011;55069;51.568;4.656;2022-07-06T05:11:51;5.57;;;2.88;;
68256;SDS011;55069;51.568;4.656;2022-07-06T05:14:16;6.27;;;3.13;;
68256;SDS011;55069;51.568;4.656;2022-07-06T05:16:42;4.68;;;3.00;;
68256;SDS011;55069;51.568;4.656;2022-07-06T05:19:08;5.47;;;2.20;;
68256;SDS011;55069;51.568;4.656;2022-07-06T05:21:34;4.57;;;2.60;;
68256;SDS011;55069;51.568;4.656;2022-07-06T05:24:00;5.65;;;2.83;;
68256;SDS011;55069;51.568;4.656;2022-07-06T05:26:26;4.95;;;2.63;;
68256;SDS011;55069;51.568;4.656;2022-07-06T05:28:53;3.17;;;1.80;;
68256;SDS011;55069;51.568;4.656;2022-07-06T05:31:20;3.78;;;2.03;;
68256;SDS011;55069;51.568;4.656;2022-07-06T05:33:46;3.42;;;2.28;;
68256;SDS011;55069;51.568;4.656;2022-07-06T05:36:12;5.30;;;3.17;;
68256;SDS011;55069;51.568;4.656;2022-07-06T05:38:37;4.75;;;2.25;;
68256;SDS011;55069;51.568;4.656;2022-07-06T05:41:04;7.63;;;2.70;;
68256;SDS011;55069;51.568;4.656;2022-07-06T05:43:32;5.68;;;3.00;;
68256;SDS011;55069;51.568;4.656;2022-07-06T05:45:59;4.25;;;2.45;;
68256;SDS011;55069;51.568;4.656;2022-07-06T05:48:28;4.18;;;1.90;;
68256;SDS011;55069;51.568;4.656;2022-07-06T05:51:12;6.00;;;2.30;;
68256;SDS011;55069;51.568;4.656;2022-07-06T05:53:41;5.83;;;3.00;;
68256;SDS011;55069;51.568;4.656;2022-07-06T05:56:07;6.75;;;3.03;;
68256;SDS011;55069;51.568;4.656;2022-07-06T05:58:34;8.15;;;2.65;;
68256;SDS011;55069;51.568;4.656;2022-07-06T06:01:00;5.97;;;2.40;;
68256;SDS011;55069;51.568;4.656;2022-07-06T06:03:25;13.82;;;3.33;;
68256;SDS011;55069;51.568;4.656;2022-07-06T06:05:51;6.77;;;2.30;;
68256;SDS011;55069;51.568;4.656;2022-07-06T06:08:18;4.07;;;2.28;;
68256;SDS011;55069;51.568;4.656;2022-07-06T06:10:44;7.93;;;2.30;;
68256;SDS011;55069;51.568;4.656;2022-07-06T06:13:13;5.18;;;2.05;;
68256;SDS011;55069;51.568;4.656;2022-07-06T06:15:39;11.97;;;2.17;;
68256;SDS011;55069;51.568;4.656;2022-07-06T06:18:05;7.53;;;1.80;;
68256;SDS011;55069;51.568;4.656;2022-07-06T06:20:31;6.37;;;1.70;;
68256;SDS011;55069;51.568;4.656;2022-07-06T06:22:57;4.80;;;1.20;;
68256;SDS011;55069;51.568;4.656;2022-07-06T06:25:41;4.60;;;1.63;;
68256;SDS011;55069;51.568;4.656;2022-07-06T06:28:07;5.38;;;1.67;;
68256;SDS011;55069;51.568;4.656;2022-07-06T06:30:34;5.20;;;1.60;;
68256;SDS011;55069;51.568;4.656;2022-07-06T06:33:19;4.88;;;1.52;;
68256;SDS011;55069;51.568;4.656;2022-07-06T06:35:50;7.93;;;1.70;;
68256;SDS011;55069;51.568;4.656;2022-07-06T06:38:18;2.83;;;0.97;;
68256;SDS011;55069;51.568;4.656;2022-07-06T06:40:44;1.77;;;0.52;;
68256;SDS011;55069;51.568;4.656;2022-07-06T06:43:10;1.88;;;0.60;;
68256;SDS011;55069;51.568;4.656;2022-07-06T06:45:43;5.77;;;0.60;;
68256;SDS011;55069;51.568;4.656;2022-07-06T06:48:10;1.58;;;0.60;;
68256;SDS011;55069;51.568;4.656;2022-07-06T06:50:35;5.03;;;0.60;;
68256;SDS011;55069;51.568;4.656;2022-07-06T06:53:02;4.57;;;0.53;;
68256;SDS011;55069;51.568;4.656;2022-07-06T06:55:27;2.67;;;0.60;;
68256;SDS011;55069;51.568;4.656;2022-07-06T06:57:53;2.53;;;0.70;;
68256;SDS011;55069;51.568;4.656;2022-07-06T07:00:19;1.98;;;0.60;;
68256;SDS011;55069;51.568;4.656;2022-07-06T07:02:45;1.90;;;0.70;;
68256;SDS011;55069;51.568;4.656;2022-07-06T07:05:12;5.95;;;1.10;;
68256;SDS011;55069;51.568;4.656;2022-07-06T07:07:37;3.13;;;0.60;;
68256;SDS011;55069;51.568;4.656;2022-07-06T07:10:04;2.90;;;0.50;;
68256;SDS011;55069;51.568;4.656;2022-07-06T07:12:30;2.78;;;0.68;;
68256;SDS011;55069;51.568;4.656;2022-07-06T07:14:56;2.92;;;0.80;;
68256;SDS011;55069;51.568;4.656;2022-07-06T07:17:22;1.37;;;0.60;;
68256;SDS011;55069;51.568;4.656;2022-07-06T07:19:47;5.33;;;0.57;;
68256;SDS011;55069;51.568;4.656;2022-07-06T07:22:13;3.08;;;0.50;;
68256;SDS011;55069;51.568;4.656;2022-07-06T07:24:39;2.80;;;0.60;;
68256;SDS011;55069;51.568;4.656;2022-07-06T07:27:04;1.65;;;0.50;;
68256;SDS011;55069;51.568;4.656;2022-07-06T07:29:30;2.63;;;0.50;;
68256;SDS011;55069;51.568;4.656;2022-07-06T07:31:56;3.50;;;0.63;;
68256;SDS011;55069;51.568;4.656;2022-07-06T07:34:22;2.57;;;0.70;;
68256;SDS011;55069;51.568;4.656;2022-07-06T07:36:47;2.03;;;0.70;;
68256;SDS011;55069;51.568;4.656;2022-07-06T07:39:13;3.08;;;0.85;;
68256;SDS011;55069;51.568;4.656;2022-07-06T07:41:38;4.38;;;0.70;;
68256;SDS011;55069;51.568;4.656;2022-07-06T07:44:04;2.40;;;0.50;;
68256;SDS011;55069;51.568;4.656;2022-07-06T07:46:30;2.60;;;0.55;;
68256;SDS011;55069;51.568;4.656;2022-07-06T07:48:56;2.40;;;0.45;;
68256;SDS011;55069;51.568;4.656;2022-07-06T07:51:22;2.17;;;0.47;;
68256;SDS011;55069;51.568;4.656;2022-07-06T07:53:47;2.37;;;1.03;;
68256;SDS011;55069;51.568;4.656;2022-07-06T07:56:13;2.30;;;0.80;;
68256;SDS011;55069;51.568;4.656;2022-07-06T07:58:39;4.15;;;1.13;;
68256;SDS011;55069;51.568;4.656;2022-07-06T08:01:05;2.80;;;0.50;;
68256;SDS011;55069;51.568;4.656;2022-07-06T08:03:30;2.22;;;0.47;;
68256;SDS011;55069;51.568;4.656;2022-07-06T08:05:57;2.83;;;0.53;;
68256;SDS011;55069;51.568;4.656;2022-07-06T08:08:22;5.18;;;0.70;;
68256;SDS011;55069;51.568;4.656;2022-07-06T08:10:48;3.05;;;0.47;;
68256;SDS011;55069;51.568;4.656;2022-07-06T08:13:13;5.20;;;0.47;;
68256;SDS011;55069;51.568;4.656;2022-07-06T08:15:40;2.03;;;0.50;;
68256;SDS011;55069;51.568;4.656;2022-07-06T08:18:06;2.07;;;0.47;;
68256;SDS011;55069;51.568;4.656;2022-07-06T08:20:31;6.63;;;0.52;;
68256;SDS011;55069;51.568;4.656;2022-07-06T08:22:56;2.00;;;0.43;;
68256;SDS011;55069;51.568;4.656;2022-07-06T08:25:22;3.23;;;0.50;;
68256;SDS011;55069;51.568;4.656;2022-07-06T08:27:47;1.38;;;0.55;;
68256;SDS011;55069;51.568;4.656;2022-07-06T08:30:13;2.42;;;0.32;;
68256;SDS011;55069;51.568;4.656;2022-07-06T08:32:39;5.43;;;0.50;;
68256;SDS011;55069;51.568;4.656;2022-07-06T08:35:09;1.02;;;0.40;;
68256;SDS011;55069;51.568;4.656;2022-07-06T08:37:35;1.55;;;0.50;;
68256;SDS011;55069;51.568;4.656;2022-07-06T08:40:01;2.03;;;0.50;;
68256;SDS011;55069;51.568;4.656;2022-07-06T08:42:32;2.63;;;0.40;;
68256;SDS011;55069;51.568;4.656;2022-07-06T08:44:58;2.85;;;0.50;;
68256;SDS011;55069;51.568;4.656;2022-07-06T08:47:28;2.47;;;0.60;;
68256;SDS011;55069;51.568;4.656;2022-07-06T08:49:56;1.40;;;0.52;;
68256;SDS011;55069;51.568;4.656;2022-07-06T08:52:24;2.73;;;0.50;;
68256;SDS011;55069;51.568;4.656;2022-07-06T08:54:50;3.50;;;0.50;;
68256;SDS011;55069;51.568;4.656;2022-07-06T08:57:16;3.92;;;0.57;;
68256;SDS011;55069;51.568;4.656;2022-07-06T08:59:42;1.15;;;0.50;;
68256;SDS011;55069;51.568;4.656;2022-07-06T09:02:11;2.50;;;0.47;;
68256;SDS011;55069;51.568;4.656;2022-07-06T09:04:38;2.35;;;0.40;;
68256;SDS011;55069;51.568;4.656;2022-07-06T09:07:05;2.70;;;0.50;;
68256;SDS011;55069;51.568;4.656;2022-07-06T09:09:31;1.17;;;0.50;;
68256;SDS011;55069;51.568;4.656;2022-07-06T09:11:57;0.93;;;0.53;;
68256;SDS011;55069;51.568;4.656;2022-07-06T09:14:23;3.75;;;0.50;;
68256;SDS011;55069;51.568;4.656;2022-07-06T09:16:52;2.22;;;0.43;;
68256;SDS011;55069;51.568;4.656;2022-07-06T09:19:27;1.77;;;0.60;;
68256;SDS011;55069;51.568;4.656;2022-07-06T09:21:53;1.85;;;0.50;;
68256;SDS011;55069;51.568;4.656;2022-07-06T09:24:19;1.60;;;0.50;;
68256;SDS011;55069;51.568;4.656;2022-07-06T09:26:44;1.50;;;0.50;;
68256;SDS011;55069;51.568;4.656;2022-07-06T09:29:12;2.50;;;0.60;;
68256;SDS011;55069;51.568;4.656;2022-07-06T09:31:39;2.90;;;0.57;;
68256;SDS011;55069;51.568;4.656;2022-07-06T09:34:05;3.08;;;0.52;;
68256;SDS011;55069;51.568;4.656;2022-07-06T09:36:42;1.80;;;0.50;;
68256;SDS011;55069;51.568;4.656;2022-07-06T09:41:44;2.15;;;0.70;;
68256;SDS011;55069;51.568;4.656;2022-07-06T09:44:11;1.13;;;0.50;;
68256;SDS011;55069;51.568;4.656;2022-07-06T09:46:40;1.40;;;0.50;;
68256;SDS011;55069;51.568;4.656;2022-07-06T09:49:07;1.58;;;0.47;;
68256;SDS011;55069;51.568;4.656;2022-07-06T09:51:35;2.20;;;0.70;;
68256;SDS011;55069;51.568;4.656;2022-07-06T09:54:07;1.75;;;0.60;;
68256;SDS011;55069;51.568;4.656;2022-07-06T09:56:37;2.40;;;1.10;;
68256;SDS011;55069;51.568;4.656;2022-07-06T09:59:14;3.40;;;0.50;;
68256;SDS011;55069;51.568;4.656;2022-07-06T10:01:41;2.40;;;0.45;;
68256;SDS011;55069;51.568;4.656;2022-07-06T10:04:08;4.05;;;0.88;;
68256;SDS011;55069;51.568;4.656;2022-07-06T10:06:38;4.97;;;0.45;;
68256;SDS011;55069;51.568;4.656;2022-07-06T10:09:08;2.38;;;0.60;;
68256;SDS011;55069;51.568;4.656;2022-07-06T10:11:37;1.70;;;0.80;;
68256;SDS011;55069;51.568;4.656;2022-07-06T10:14:04;1.00;;;0.57;;
68256;SDS011;55069;51.568;4.656;2022-07-06T10:16:31;2.15;;;0.45;;
68256;SDS011;55069;51.568;4.656;2022-07-06T10:18:58;3.70;;;0.60;;
68256;SDS011;55069;51.568;4.656;2022-07-06T10:21:26;2.75;;;0.60;;
68256;SDS011;55069;51.568;4.656;2022-07-06T10:23:52;1.50;;;0.57;;
68256;SDS011;55069;51.568;4.656;2022-07-06T10:26:19;2.80;;;0.88;;
68256;SDS011;55069;51.568;4.656;2022-07-06T10:28:47;2.42;;;0.68;;
68256;SDS011;55069;51.568;4.656;2022-07-06T10:31:16;1.95;;;0.73;;
68256;SDS011;55069;51.568;4.656;2022-07-06T10:33:43;2.03;;;0.50;;
68256;SDS011;55069;51.568;4.656;2022-07-06T10:36:11;1.80;;;0.53;;
68256;SDS011;55069;51.568;4.656;2022-07-06T10:38:37;6.07;;;0.40;;
68256;SDS011;55069;51.568;4.656;2022-07-06T10:41:04;3.13;;;0.90;;
68256;SDS011;55069;51.568;4.656;2022-07-06T10:46:08;1.35;;;0.50;;
68256;SDS011;55069;51.568;4.656;2022-07-06T10:48:39;1.33;;;0.45;;
68256;SDS011;55069;51.568;4.656;2022-07-06T10:51:12;2.33;;;0.70;;
68256;SDS011;55069;51.568;4.656;2022-07-06T10:53:49;4.07;;;0.80;;
68256;SDS011;55069;51.568;4.656;2022-07-06T10:56:20;2.45;;;0.55;;
68256;SDS011;55069;51.568;4.656;2022-07-06T10:59:01;3.05;;;0.70;;
68256;SDS011;55069;51.568;4.656;2022-07-06T11:01:28;3.00;;;0.90;;
68256;SDS011;55069;51.568;4.656;2022-07-06T11:06:23;2.83;;;0.65;;
68256;SDS011;55069;51.568;4.656;2022-07-06T11:08:56;1.77;;;0.70;;
68256;SDS011;55069;51.568;4.656;2022-07-06T11:11:37;2.33;;;0.60;;
68256;SDS011;55069;51.568;4.656;2022-07-06T11:14:18;2.90;;;0.80;;
68256;SDS011;55069;51.568;4.656;2022-07-06T11:19:12;5.60;;;0.83;;
68256;SDS011;55069;51.568;4.656;2022-07-06T11:24:06;2.65;;;0.70;;
68256;SDS011;55069;51.568;4.656;2022-07-06T11:26:34;2.00;;;0.82;;
68256;SDS011;55069;51.568;4.656;2022-07-06T11:29:03;3.17;;;0.70;;
68256;SDS011;55069;51.568;4.656;2022-07-06T11:31:33;3.58;;;0.50;;
68256;SDS011;55069;51.568;4.656;2022-07-06T11:34:01;6.95;;;0.80;;
68256;SDS011;55069;51.568;4.656;2022-07-06T11:36:26;9.03;;;0.70;;
68256;SDS011;55069;51.568;4.656;2022-07-06T11:38:52;4.05;;;0.60;;
68256;SDS011;55069;51.568;4.656;2022-07-06T11:41:18;3.43;;;0.50;;
68256;SDS011;55069;51.568;4.656;2022-07-06T11:43:44;1.60;;;0.60;;
68256;SDS011;55069;51.568;4.656;2022-07-06T11:46:30;4.13;;;0.77;;
68256;SDS011;55069;51.568;4.656;2022-07-06T11:49:04;2.50;;;0.40;;
68256;SDS011;55069;51.568;4.656;2022-07-06T11:51:32;3.53;;;0.68;;
68256;SDS011;55069;51.568;4.656;2022-07-06T11:54:07;3.80;;;0.90;;
68256;SDS011;55069;51.568;4.656;2022-07-06T11:56:34;5.28;;;0.95;;
68256;SDS011;55069;51.568;4.656;2022-07-06T11:59:00;1.80;;;0.60;;
68256;SDS011;55069;51.568;4.656;2022-07-06T12:01:27;3.05;;;0.98;;
68256;SDS011;55069;51.568;4.656;2022-07-06T12:03:57;4.25;;;0.95;;
68256;SDS011;55069;51.568;4.656;2022-07-06T12:06:24;3.00;;;1.33;;
68256;SDS011;55069;51.568;4.656;2022-07-06T12:08:53;3.85;;;1.08;;
68256;SDS011;55069;51.568;4.656;2022-07-06T12:13:51;5.00;;;1.10;;
68256;SDS011;55069;51.568;4.656;2022-07-06T12:16:18;2.97;;;1.10;;
68256;SDS011;55069;51.568;4.656;2022-07-06T12:18:46;5.07;;;0.88;;
68256;SDS011;55069;51.568;4.656;2022-07-06T12:21:17;4.55;;;0.82;;
68256;SDS011;55069;51.568;4.656;2022-07-06T12:23:46;2.97;;;1.10;;
68256;SDS011;55069;51.568;4.656;2022-07-06T12:26:14;5.57;;;1.38;;
68256;SDS011;55069;51.568;4.656;2022-07-06T12:28:41;3.40;;;1.00;;
68256;SDS011;55069;51.568;4.656;2022-07-06T12:31:08;3.38;;;1.20;;
68256;SDS011;55069;51.568;4.656;2022-07-06T12:33:34;4.53;;;1.05;;
68256;SDS011;55069;51.568;4.656;2022-07-06T12:36:13;1.98;;;1.00;;
68256;SDS011;55069;51.568;4.656;2022-07-06T12:38:44;3.58;;;0.80;;
68256;SDS011;55069;51.568;4.656;2022-07-06T12:41:24;5.50;;;1.27;;
68256;SDS011;55069;51.568;4.656;2022-07-06T12:44:04;5.33;;;1.43;;
68256;SDS011;55069;51.568;4.656;2022-07-06T12:49:11;4.00;;;1.52;;
68256;SDS011;55069;51.568;4.656;2022-07-06T12:54:17;4.50;;;1.30;;
68256;SDS011;55069;51.568;4.656;2022-07-06T12:59:28;3.30;;;1.35;;
68256;SDS011;55069;51.568;4.656;2022-07-06T13:01:54;3.15;;;1.25;;
68256;SDS011;55069;51.568;4.656;2022-07-06T13:04:23;7.82;;;1.17;;
68256;SDS011;55069;51.568;4.656;2022-07-06T13:06:50;4.23;;;1.17;;
68256;SDS011;55069;51.568;4.656;2022-07-06T13:09:16;4.25;;;1.15;;
68256;SDS011;55069;51.568;4.656;2022-07-06T13:11:44;8.98;;;2.00;;
68256;SDS011;55069;51.568;4.656;2022-07-06T13:14:17;3.17;;;0.80;;
68256;SDS011;55069;51.568;4.656;2022-07-06T13:16:44;2.25;;;0.88;;
68256;SDS011;55069;51.568;4.656;2022-07-06T13:19:11;4.67;;;1.10;;
68256;SDS011;55069;51.568;4.656;2022-07-06T13:21:37;4.22;;;1.25;;
68256;SDS011;55069;51.568;4.656;2022-07-06T13:24:03;3.00;;;1.27;;
68256;SDS011;55069;51.568;4.656;2022-07-06T13:26:29;3.87;;;0.80;;
68256;SDS011;55069;51.568;4.656;2022-07-06T13:29:02;5.55;;;1.10;;
68256;SDS011;55069;51.568;4.656;2022-07-06T13:31:28;2.90;;;0.93;;
68256;SDS011;55069;51.568;4.656;2022-07-06T13:33:55;2.63;;;1.00;;
68256;SDS011;55069;51.568;4.656;2022-07-06T13:36:21;2.85;;;1.20;;
68256;SDS011;55069;51.568;4.656;2022-07-06T13:38:46;4.20;;;1.10;;
68256;SDS011;55069;51.568;4.656;2022-07-06T13:41:12;5.57;;;1.37;;
68256;SDS011;55069;51.568;4.656;2022-07-06T13:43:37;6.28;;;1.30;;
68256;SDS011;55069;51.568;4.656;2022-07-06T13:46:03;2.93;;;1.10;;
68256;SDS011;55069;51.568;4.656;2022-07-06T13:48:30;5.13;;;1.65;;
68256;SDS011;55069;51.568;4.656;2022-07-06T13:50:56;4.05;;;1.52;;
68256;SDS011;55069;51.568;4.656;2022-07-06T13:53:21;9.77;;;1.67;;
68256;SDS011;55069;51.568;4.656;2022-07-06T13:55:47;5.13;;;1.80;;
68256;SDS011;55069;51.568;4.656;2022-07-06T13:58:12;7.00;;;1.90;;
68256;SDS011;55069;51.568;4.656;2022-07-06T14:00:38;8.03;;;1.83;;
68256;SDS011;55069;51.568;4.656;2022-07-06T14:03:03;8.30;;;2.07;;
68256;SDS011;55069;51.568;4.656;2022-07-06T14:05:29;5.53;;;1.90;;
68256;SDS011;55069;51.568;4.656;2022-07-06T14:07:55;5.03;;;1.47;;
68256;SDS011;55069;51.568;4.656;2022-07-06T14:10:21;10.35;;;2.30;;
68256;SDS011;55069;51.568;4.656;2022-07-06T14:12:47;7.13;;;1.77;;
68256;SDS011;55069;51.568;4.656;2022-07-06T14:15:12;6.43;;;1.77;;
68256;SDS011;55069;51.568;4.656;2022-07-06T14:17:38;5.57;;;2.00;;
68256;SDS011;55069;51.568;4.656;2022-07-06T14:20:03;8.35;;;2.08;;
68256;SDS011;55069;51.568;4.656;2022-07-06T14:22:29;5.67;;;1.50;;
68256;SDS011;55069;51.568;4.656;2022-07-06T14:24:55;6.80;;;1.98;;
68256;SDS011;55069;51.568;4.656;2022-07-06T14:27:21;7.50;;;2.33;;
68256;SDS011;55069;51.568;4.656;2022-07-06T14:29:46;5.68;;;2.40;;
68256;SDS011;55069;51.568;4.656;2022-07-06T14:32:12;5.70;;;1.80;;
68256;SDS011;55069;51.568;4.656;2022-07-06T14:34:38;6.10;;;2.55;;
68256;SDS011;55069;51.568;4.656;2022-07-06T14:37:03;7.07;;;2.20;;
68256;SDS011;55069;51.568;4.656;2022-07-06T14:39:29;5.90;;;2.30;;
68256;SDS011;55069;51.568;4.656;2022-07-06T14:41:55;7.65;;;2.22;;
68256;SDS011;55069;51.568;4.656;2022-07-06T14:44:20;5.73;;;2.47;;
68256;SDS011;55069;51.568;4.656;2022-07-06T14:46:46;5.70;;;2.03;;
68256;SDS011;55069;51.568;4.656;2022-07-06T14:49:11;10.15;;;2.35;;
68256;SDS011;55069;51.568;4.656;2022-07-06T14:51:37;6.17;;;1.83;;
68256;SDS011;55069;51.568;4.656;2022-07-06T14:54:02;4.90;;;1.90;;
68256;SDS011;55069;51.568;4.656;2022-07-06T14:56:28;5.43;;;1.97;;
68256;SDS011;55069;51.568;4.656;2022-07-06T14:58:54;5.43;;;2.20;;
68256;SDS011;55069;51.568;4.656;2022-07-06T15:01:19;6.53;;;1.90;;
68256;SDS011;55069;51.568;4.656;2022-07-06T15:03:45;7.20;;;2.30;;
68256;SDS011;55069;51.568;4.656;2022-07-06T15:06:11;8.40;;;2.40;;
68256;SDS011;55069;51.568;4.656;2022-07-06T15:08:36;5.80;;;2.40;;
68256;SDS011;55069;51.568;4.656;2022-07-06T15:11:02;6.97;;;2.55;;